createdAt,value
2023-05-22T00:00:23.222Z,500.00
2023-05-22T00:01:23.255Z,500.00
2023-05-22T00:02:23.320Z,500.00
2023-05-22T00:03:23.360Z,418.00
2023-05-22T00:04:23.370Z,400.00
2023-05-22T00:05:23.546Z,400.00
2023-05-22T00:06:23.472Z,400.00
2023-05-22T00:07:23.528Z,400.00
2023-05-22T00:08:23.564Z,400.00
2023-05-22T00:09:23.611Z,400.00
2023-05-22T00:10:23.654Z,400.00
2023-05-22T00:11:23.703Z,433.00
2023-05-22T00:12:23.754Z,468.00
2023-05-22T00:13:23.832Z,498.00
2023-05-22T00:14:23.854Z,502.00
2023-05-22T00:15:23.905Z,500.00
2023-05-22T00:16:23.957Z,500.00
2023-05-22T00:17:24.117Z,502.00
2023-05-22T00:18:24.053Z,503.00
2023-05-22T00:19:24.161Z,500.00
2023-05-22T00:20:24.180Z,502.00
2023-05-22T00:21:24.211Z,500.00
2023-05-22T00:22:24.267Z,500.00
2023-05-22T00:23:24.334Z,498.00
2023-05-22T00:24:24.361Z,500.00
2023-05-22T00:25:24.413Z,501.00
2023-05-22T00:26:24.465Z,506.00
2023-05-22T00:27:24.509Z,499.00
2023-05-22T00:28:24.568Z,503.00
2023-05-22T00:29:24.649Z,501.00
2023-05-22T00:30:24.660Z,500.00
2023-05-22T00:31:24.715Z,506.00
2023-05-22T00:32:24.817Z,505.00
2023-05-22T00:33:24.820Z,501.00
2023-05-22T00:34:24.918Z,508.00
2023-05-22T00:35:24.915Z,504.00
2023-05-22T00:36:24.970Z,501.00
2023-05-22T00:37:25.032Z,506.00
2023-05-22T00:38:25.074Z,503.00
2023-05-22T00:39:25.132Z,502.00
2023-05-22T00:40:25.192Z,502.00
2023-05-22T00:41:25.238Z,500.00
2023-05-22T00:42:25.298Z,503.00
2023-05-22T00:43:25.345Z,500.00
2023-05-22T00:44:25.425Z,500.00
2023-05-22T00:45:25.494Z,507.00
2023-05-22T00:46:25.518Z,503.00
2023-05-22T00:47:25.576Z,503.00
2023-05-22T00:48:25.622Z,503.00
2023-05-22T00:49:25.608Z,505.00
2023-05-22T00:50:25.659Z,499.00
2023-05-22T00:51:25.695Z,507.00
2023-05-22T00:52:25.734Z,505.00
2023-05-22T00:53:25.811Z,506.00
2023-05-22T00:54:25.819Z,504.00
2023-05-22T00:55:25.956Z,505.00
2023-05-22T00:56:25.902Z,501.00
2023-05-22T00:57:25.979Z,503.00
2023-05-22T00:58:25.977Z,501.00
2023-05-22T00:59:26.007Z,501.00
2023-05-22T01:00:26.048Z,502.00
2023-05-22T01:01:26.205Z,502.00
2023-05-22T01:02:26.048Z,502.00
2023-05-22T01:03:26.606Z,507.00
2023-05-22T01:04:26.092Z,506.00
2023-05-22T01:05:26.103Z,508.00
2023-05-22T01:06:26.112Z,507.00
2023-05-22T01:07:26.127Z,509.00
2023-05-22T01:08:26.153Z,502.00
2023-05-22T01:09:26.154Z,504.00
2023-05-22T01:10:26.150Z,504.00
2023-05-22T01:11:26.167Z,504.00
2023-05-22T01:12:26.173Z,504.00
2023-05-22T01:13:26.202Z,503.00
2023-05-22T01:14:26.201Z,504.00
2023-05-22T01:15:26.229Z,501.00
2023-05-22T01:16:26.277Z,503.00
2023-05-22T01:17:26.395Z,507.00
2023-05-22T01:18:26.273Z,502.00
2023-05-22T01:19:26.360Z,500.00
2023-05-22T01:20:26.314Z,506.00
2023-05-22T01:21:26.309Z,508.00
2023-05-22T01:22:26.317Z,508.00
2023-05-22T01:23:26.319Z,505.00
2023-05-22T01:24:26.330Z,504.00
2023-05-22T01:25:26.330Z,507.00
2023-05-22T01:26:26.360Z,502.00
2023-05-22T01:27:26.414Z,503.00
2023-05-22T01:28:26.359Z,504.00
2023-05-22T01:29:26.377Z,502.00
2023-05-22T01:30:26.398Z,503.00
2023-05-22T01:31:26.459Z,505.00
2023-05-22T01:32:26.547Z,500.00
2023-05-22T01:33:26.731Z,506.00
2023-05-22T01:34:26.489Z,505.00
2023-05-22T01:35:26.510Z,502.00
2023-05-22T01:36:26.541Z,502.00
2023-05-22T01:37:26.579Z,508.00
2023-05-22T01:38:26.571Z,507.00
2023-05-22T01:39:26.571Z,502.00
2023-05-22T01:40:26.582Z,508.00
2023-05-22T01:41:26.606Z,505.00
2023-05-22T01:42:26.616Z,508.00
2023-05-22T01:43:26.656Z,499.00
2023-05-22T01:44:26.672Z,501.00
2023-05-22T01:45:26.706Z,508.00
2023-05-22T01:46:26.745Z,506.00
2023-05-22T01:47:26.772Z,509.00
2023-05-22T01:48:26.730Z,502.00
2023-05-22T01:49:27.026Z,505.00
2023-05-22T01:50:26.750Z,502.00
2023-05-22T01:51:26.746Z,500.00
2023-05-22T01:52:26.753Z,503.00
2023-05-22T01:53:26.759Z,503.00
2023-05-22T01:54:26.784Z,512.00
2023-05-22T01:55:26.789Z,506.00
2023-05-22T01:56:26.802Z,511.00
2023-05-22T01:57:27.071Z,509.00
2023-05-22T01:58:26.828Z,509.00
2023-05-22T01:59:26.827Z,509.00
2023-05-22T02:00:26.860Z,509.00
2023-05-22T02:01:26.893Z,506.00
2023-05-22T02:02:26.935Z,504.00
2023-05-22T02:03:27.033Z,505.00
2023-05-22T02:04:26.864Z,509.00
2023-05-22T02:05:26.914Z,500.00
2023-05-22T02:06:26.873Z,504.00
2023-05-22T02:07:26.877Z,510.00
2023-05-22T02:08:26.874Z,506.00
2023-05-22T02:09:26.875Z,510.00
2023-05-22T02:10:26.883Z,502.00
2023-05-22T02:11:26.913Z,503.00
2023-05-22T02:12:26.977Z,505.00
2023-05-22T02:13:26.997Z,507.00
2023-05-22T02:14:27.025Z,510.00
2023-05-22T02:15:27.113Z,508.00
2023-05-22T02:16:27.041Z,507.00
2023-05-22T02:17:27.092Z,504.00
2023-05-22T02:18:27.053Z,503.00
2023-05-22T02:19:27.094Z,502.00
2023-05-22T02:20:27.063Z,505.00
2023-05-22T02:21:27.099Z,506.00
2023-05-22T02:22:27.092Z,500.00
2023-05-22T02:23:27.136Z,504.00
2023-05-22T02:24:27.120Z,502.00
2023-05-22T02:25:27.132Z,505.00
2023-05-22T02:26:27.134Z,505.00
2023-05-22T02:27:27.159Z,506.00
2023-05-22T02:28:27.224Z,508.00
2023-05-22T02:29:27.190Z,506.00
2023-05-22T02:30:27.222Z,504.00
2023-05-22T02:31:27.321Z,504.00
2023-05-22T02:32:27.257Z,501.00
2023-05-22T02:33:27.246Z,505.00
2023-05-22T02:34:27.276Z,506.00
2023-05-22T02:35:27.277Z,502.00
2023-05-22T02:36:27.291Z,505.00
2023-05-22T02:37:27.317Z,505.00
2023-05-22T02:38:27.300Z,506.00
2023-05-22T02:39:27.310Z,504.00
2023-05-22T02:40:27.314Z,506.00
2023-05-22T02:41:27.329Z,504.00
2023-05-22T02:42:27.323Z,504.00
2023-05-22T02:43:27.349Z,503.00
2023-05-22T02:44:27.357Z,503.00
2023-05-22T02:45:27.346Z,503.00
2023-05-22T02:46:27.361Z,504.00
2023-05-22T02:47:27.369Z,507.00
2023-05-22T02:48:27.370Z,505.00
2023-05-22T02:49:27.369Z,506.00
2023-05-22T02:50:27.380Z,504.00
2023-05-22T02:51:27.379Z,509.00
2023-05-22T02:52:27.393Z,505.00
2023-05-22T02:53:27.424Z,505.00
2023-05-22T02:54:27.399Z,506.00
2023-05-22T02:55:27.401Z,504.00
2023-05-22T02:56:27.399Z,505.00
2023-05-22T02:57:27.415Z,503.00
2023-05-22T02:58:27.417Z,506.00
2023-05-22T02:59:27.415Z,504.00
2023-05-22T03:00:27.428Z,503.00
2023-05-22T03:01:27.459Z,504.00
2023-05-22T03:02:27.520Z,504.00
2023-05-22T03:03:27.526Z,504.00
2023-05-22T03:04:27.444Z,507.00
2023-05-22T03:05:27.448Z,505.00
2023-05-22T03:06:27.448Z,507.00
2023-05-22T03:07:27.459Z,509.00
2023-05-22T03:08:27.454Z,504.00
2023-05-22T03:09:27.485Z,503.00
2023-05-22T03:10:27.476Z,504.00
2023-05-22T03:11:27.481Z,503.00
2023-05-22T03:12:27.492Z,504.00
2023-05-22T03:13:27.488Z,505.00
2023-05-22T03:14:27.489Z,504.00
2023-05-22T03:15:27.494Z,507.00
2023-05-22T03:16:27.510Z,504.00
2023-05-22T03:17:27.516Z,504.00
2023-05-22T03:18:27.963Z,507.00
2023-05-22T03:19:27.652Z,504.00
2023-05-22T03:20:27.514Z,509.00
2023-05-22T03:21:27.519Z,508.00
2023-05-22T03:22:27.552Z,511.00
2023-05-22T03:23:27.531Z,504.00
2023-05-22T03:24:27.519Z,506.00
2023-05-22T03:25:27.553Z,506.00
2023-05-22T03:26:27.546Z,503.00
2023-05-22T03:27:27.555Z,505.00
2023-05-22T03:28:27.538Z,501.00
2023-05-22T03:29:27.541Z,505.00
2023-05-22T03:30:27.549Z,508.00
2023-05-22T03:31:27.549Z,501.00
2023-05-22T03:32:27.565Z,503.00
2023-05-22T03:33:27.573Z,507.00
2023-05-22T03:34:27.563Z,506.00
2023-05-22T03:35:27.563Z,504.00
2023-05-22T03:36:27.566Z,504.00
2023-05-22T03:37:27.558Z,501.00
2023-05-22T03:38:27.564Z,503.00
2023-05-22T03:39:27.565Z,504.00
2023-05-22T03:40:27.564Z,505.00
2023-05-22T03:41:27.602Z,505.00
2023-05-22T03:42:27.569Z,504.00
2023-05-22T03:43:27.572Z,503.00
2023-05-22T03:44:27.575Z,505.00
2023-05-22T03:45:27.584Z,504.00
2023-05-22T03:46:27.756Z,503.00
2023-05-22T03:47:27.633Z,503.00
2023-05-22T03:48:27.610Z,502.00
2023-05-22T03:49:27.599Z,505.00
2023-05-22T03:50:27.589Z,508.00
2023-05-22T03:51:27.591Z,509.00
2023-05-22T03:52:27.595Z,503.00
2023-05-22T03:53:27.600Z,504.00
2023-05-22T03:54:27.600Z,503.00
2023-05-22T03:55:27.606Z,508.00
2023-05-22T03:56:27.607Z,508.00
2023-05-22T03:57:27.641Z,505.00
2023-05-22T03:58:27.652Z,504.00
2023-05-22T03:59:27.644Z,505.00
2023-05-22T04:00:27.710Z,507.00
2023-05-22T04:01:27.790Z,506.00
2023-05-22T04:02:27.888Z,501.00
2023-05-22T04:03:28.031Z,505.00
2023-05-22T04:04:27.981Z,506.00
2023-05-22T04:05:28.174Z,507.00
2023-05-22T04:06:28.160Z,506.00
2023-05-22T04:07:28.182Z,501.00
2023-05-22T04:08:28.251Z,507.00
2023-05-22T04:09:28.313Z,509.00
2023-05-22T04:10:28.399Z,504.00
2023-05-22T04:11:28.449Z,504.00
2023-05-22T04:12:28.508Z,504.00
2023-05-22T04:13:28.625Z,504.00
2023-05-22T04:14:28.638Z,503.00
2023-05-22T04:15:28.715Z,502.00
2023-05-22T04:16:28.922Z,504.00
2023-05-22T04:17:28.891Z,505.00
2023-05-22T04:18:28.924Z,504.00
2023-05-22T04:19:29.087Z,505.00
2023-05-22T04:20:29.048Z,510.00
2023-05-22T04:21:29.082Z,502.00
2023-05-22T04:22:29.097Z,505.00
2023-05-22T04:23:29.096Z,508.00
2023-05-22T04:24:29.104Z,504.00
2023-05-22T04:25:29.113Z,505.00
2023-05-22T04:26:29.115Z,502.00
2023-05-22T04:27:29.133Z,501.00
2023-05-22T04:28:29.129Z,503.00
2023-05-22T04:29:29.154Z,503.00
2023-05-22T04:30:29.136Z,501.00
2023-05-22T04:31:29.150Z,501.00
2023-05-22T04:32:29.181Z,503.00
2023-05-22T04:33:29.162Z,506.00
2023-05-22T04:34:29.176Z,504.00
2023-05-22T04:35:29.175Z,502.00
2023-05-22T04:36:29.184Z,504.00
2023-05-22T04:37:29.192Z,504.00
2023-05-22T04:38:29.213Z,504.00
2023-05-22T04:39:29.210Z,503.00
2023-05-22T04:40:29.210Z,503.00
2023-05-22T04:41:29.215Z,507.00
2023-05-22T04:42:29.229Z,507.00
2023-05-22T04:43:29.230Z,508.00
2023-05-22T04:44:29.241Z,509.00
2023-05-22T04:45:29.286Z,507.00
2023-05-22T04:46:29.295Z,506.00
2023-05-22T04:47:29.292Z,504.00
2023-05-22T04:48:29.264Z,502.00
2023-05-22T04:49:29.259Z,509.00
2023-05-22T04:50:29.267Z,507.00
2023-05-22T04:51:29.269Z,505.00
2023-05-22T04:52:29.276Z,508.00
2023-05-22T04:53:29.275Z,506.00
2023-05-22T04:54:29.280Z,505.00
2023-05-22T04:55:29.283Z,506.00
2023-05-22T04:56:36.222Z,509.00
2023-05-22T04:57:29.306Z,509.00
2023-05-22T04:58:29.304Z,510.00
2023-05-22T04:59:29.292Z,511.00
2023-05-22T05:00:29.307Z,508.00
2023-05-22T05:01:31.724Z,514.00
2023-05-22T05:02:29.302Z,509.00
2023-05-22T05:03:29.357Z,510.00
2023-05-22T05:04:29.294Z,509.00
2023-05-22T05:05:29.299Z,510.00
2023-05-22T05:06:29.300Z,509.00
2023-05-22T05:07:29.315Z,508.00
2023-05-22T05:08:29.303Z,509.00
2023-05-22T05:09:29.309Z,506.00
2023-05-22T05:10:29.341Z,508.00
2023-05-22T05:11:29.315Z,506.00
2023-05-22T05:12:29.304Z,500.00
2023-05-22T05:13:29.311Z,502.00
2023-05-22T05:14:29.675Z,500.00
2023-05-22T05:15:29.321Z,500.00
2023-05-22T05:16:29.388Z,500.00
2023-05-22T05:17:29.481Z,500.00
2023-05-22T05:18:29.335Z,500.00
2023-05-22T05:19:29.478Z,500.00
2023-05-22T05:20:29.358Z,502.00
2023-05-22T05:21:29.365Z,499.00
2023-05-22T05:22:29.400Z,504.00
2023-05-22T05:23:29.368Z,500.00
2023-05-22T05:24:29.371Z,501.00
2023-05-22T05:25:29.409Z,503.00
2023-05-22T05:26:29.399Z,502.00
2023-05-22T05:27:29.380Z,500.00
2023-05-22T05:28:29.380Z,506.00
2023-05-22T05:29:29.380Z,500.00
2023-05-22T05:30:29.385Z,502.00
2023-05-22T05:31:29.713Z,502.00
2023-05-22T05:32:29.476Z,500.00
2023-05-22T05:33:29.423Z,500.00
2023-05-22T05:34:29.393Z,500.00
2023-05-22T05:35:29.399Z,504.00
2023-05-22T05:36:29.412Z,504.00
2023-05-22T05:37:29.409Z,511.00
2023-05-22T05:38:29.394Z,501.00
2023-05-22T05:39:29.397Z,503.00
2023-05-22T05:40:29.405Z,501.00
2023-05-22T05:41:29.420Z,503.00
2023-05-22T05:42:29.411Z,502.00
2023-05-22T05:43:29.439Z,503.00
2023-05-22T05:44:29.660Z,503.00
2023-05-22T05:45:29.458Z,504.00
2023-05-22T05:46:30.596Z,521.00
2023-05-22T05:47:29.734Z,519.00
2023-05-22T05:48:29.468Z,539.00
2023-05-22T05:49:29.487Z,550.00
2023-05-22T05:50:29.460Z,564.00
2023-05-22T05:51:29.464Z,571.00
2023-05-22T05:52:29.682Z,563.00
2023-05-22T05:53:29.548Z,564.00
2023-05-22T05:54:29.567Z,560.00
2023-05-22T05:55:37.007Z,554.00
2023-05-22T05:56:37.063Z,555.00
2023-05-22T05:57:32.785Z,555.00
2023-05-22T05:58:29.580Z,555.00
2023-05-22T05:59:29.575Z,558.00
2023-05-22T06:00:37.189Z,560.00
2023-05-22T06:02:01.487Z,555.00
2023-05-22T06:02:32.953Z,556.00
2023-05-22T06:03:45.321Z,556.00
2023-05-22T06:06:03.709Z,500.00
2023-05-22T06:06:48.652Z,500.00
2023-05-22T06:08:20.452Z,500.00
2023-05-22T06:08:51.853Z,500.00
2023-05-22T06:09:49.206Z,500.00
2023-05-22T06:10:51.875Z,500.00
2023-05-22T06:11:49.718Z,500.00
2023-05-22T06:13:56.088Z,500.00
2023-05-22T06:14:48.857Z,500.00
2023-05-22T06:15:48.785Z,500.00
2023-05-22T06:16:48.859Z,500.00
2023-05-22T06:17:49.904Z,500.00
2023-05-22T06:18:48.793Z,500.00
2023-05-22T06:19:48.847Z,500.00
2023-05-22T06:20:48.708Z,507.00
2023-05-22T06:21:50.243Z,514.00
2023-05-22T06:22:48.729Z,524.00
2023-05-22T06:23:48.716Z,527.00
2023-05-22T06:24:48.720Z,514.00
2023-05-22T06:25:48.733Z,511.00
2023-05-22T06:26:48.868Z,513.00
2023-05-22T06:27:48.717Z,516.00
2023-05-22T06:28:48.720Z,522.00
2023-05-22T06:29:48.768Z,528.00
2023-05-22T06:30:48.941Z,527.00
2023-05-22T06:31:48.787Z,525.00
2023-05-22T06:32:49.008Z,526.00
2023-05-22T06:33:52.086Z,526.00
2023-05-22T06:34:48.725Z,526.00
2023-05-22T06:35:48.729Z,527.00
2023-05-22T06:36:48.980Z,529.00
2023-05-22T06:37:48.767Z,514.00
2023-05-22T06:38:56.180Z,519.00
2023-05-22T06:40:20.575Z,527.00
2023-05-22T06:40:48.744Z,527.00
2023-05-22T06:41:48.926Z,529.00
2023-05-22T06:42:48.759Z,529.00
2023-05-22T06:43:48.907Z,530.00
2023-05-22T06:44:48.751Z,523.00
2023-05-22T06:45:48.859Z,515.00
2023-05-22T06:46:48.950Z,501.00
2023-05-22T06:47:48.885Z,503.00
2023-05-22T06:48:48.796Z,505.00
2023-05-22T06:49:48.777Z,504.00
2023-05-22T06:50:48.789Z,503.00
2023-05-22T06:51:48.787Z,500.00
2023-05-22T06:52:48.884Z,509.00
2023-05-22T06:53:48.831Z,504.00
2023-05-22T06:54:48.796Z,505.00
2023-05-22T06:55:49.822Z,500.00
2023-05-22T06:56:48.818Z,512.00
2023-05-22T06:57:48.863Z,509.00
2023-05-22T06:58:48.811Z,514.00
2023-05-22T06:59:49.063Z,515.00
2023-05-22T07:00:49.124Z,506.00
2023-05-22T07:01:48.920Z,504.00
2023-05-22T07:02:49.043Z,505.00
2023-05-22T07:03:48.934Z,509.00
2023-05-22T07:04:52.205Z,501.00
2023-05-22T07:05:52.246Z,501.00
2023-05-22T07:06:49.000Z,493.00
2023-05-22T07:07:48.997Z,488.00
2023-05-22T07:08:52.308Z,484.00
2023-05-22T07:09:49.130Z,495.00
2023-05-22T07:10:49.529Z,476.00
2023-05-22T07:11:49.025Z,470.00
2023-05-22T07:12:49.360Z,465.00
2023-05-22T07:13:49.039Z,458.00
2023-05-22T07:14:49.034Z,501.00
2023-05-22T07:15:49.055Z,511.00
2023-05-22T07:16:49.185Z,508.00
2023-05-22T07:17:49.157Z,500.00
2023-05-22T07:18:49.425Z,505.00
2023-05-22T07:19:49.055Z,503.00
2023-05-22T07:20:49.107Z,505.00
2023-05-22T07:21:49.068Z,506.00
2023-05-22T07:22:49.076Z,511.00
2023-05-22T07:23:49.365Z,515.00
2023-05-22T07:24:49.306Z,503.00
2023-05-22T07:25:49.242Z,504.00
2023-05-22T07:26:49.305Z,508.00
2023-05-22T07:27:49.425Z,500.00
2023-05-22T07:28:49.879Z,501.00
2023-05-22T07:29:49.516Z,500.00
2023-05-22T07:30:50.569Z,501.00
2023-05-22T07:31:49.667Z,500.00
2023-05-22T07:32:52.989Z,503.00
2023-05-22T07:33:49.870Z,503.00
2023-05-22T07:34:49.731Z,505.00
2023-05-22T07:35:57.145Z,510.00
2023-05-22T07:38:05.377Z,503.00
2023-05-22T07:38:53.061Z,503.00
2023-05-22T07:39:49.729Z,482.00
2023-05-22T07:40:51.933Z,447.00
2023-05-22T07:42:05.389Z,456.00
2023-05-22T07:42:53.147Z,440.00
2023-05-22T07:43:49.887Z,420.00
2023-05-22T07:44:52.898Z,416.00
2023-05-22T07:45:49.749Z,466.00
2023-05-22T07:46:49.695Z,491.00
2023-05-22T07:48:49.734Z,503.00
2023-05-22T07:49:57.285Z,504.00
2023-05-22T07:50:49.696Z,503.00
2023-05-22T07:51:57.057Z,507.00
2023-05-22T07:52:52.973Z,504.00
2023-05-22T07:53:52.831Z,504.00
2023-05-22T07:54:49.909Z,505.00
2023-05-22T07:55:49.623Z,511.00
2023-05-22T07:56:49.736Z,521.00
2023-05-22T07:57:49.613Z,534.00
2023-05-22T07:58:49.924Z,563.00
2023-05-22T07:59:52.799Z,566.00
2023-05-22T08:00:49.577Z,566.00
2023-05-22T08:01:49.572Z,568.00
2023-05-22T08:02:49.980Z,561.00
2023-05-22T08:03:50.029Z,565.00
2023-05-22T08:04:49.903Z,581.00
2023-05-22T08:05:49.798Z,582.00
2023-05-22T08:06:49.554Z,594.00
2023-05-22T08:07:49.540Z,600.00
2023-05-22T08:08:49.877Z,597.00
2023-05-22T08:09:49.534Z,605.00
2023-05-22T08:11:02.868Z,586.00
2023-05-22T08:11:49.530Z,586.00
2023-05-22T08:12:49.676Z,587.00
2023-05-22T08:13:49.887Z,587.00
2023-05-22T08:14:49.507Z,588.00
2023-05-22T08:15:49.564Z,593.00
2023-05-22T08:16:52.739Z,590.00
2023-05-22T08:17:49.555Z,591.00
2023-05-22T08:18:49.914Z,591.00
2023-05-22T08:19:49.557Z,588.00
2023-05-22T08:20:49.484Z,566.00
2023-05-22T08:21:49.479Z,575.00
2023-05-22T08:22:49.513Z,581.00
2023-05-22T08:23:49.884Z,570.00
2023-05-22T08:24:50.438Z,566.00
2023-05-22T08:25:49.459Z,556.00
2023-05-22T08:26:49.436Z,564.00
2023-05-22T08:27:49.418Z,554.00
2023-05-22T08:28:49.989Z,540.00
2023-05-22T08:29:49.416Z,537.00
2023-05-22T08:30:49.392Z,530.00
2023-05-22T08:31:49.469Z,538.00
2023-05-22T08:32:49.418Z,526.00
2023-05-22T08:33:49.370Z,521.00
2023-05-22T08:34:49.424Z,524.00
2023-05-22T08:35:49.482Z,527.00
2023-05-22T08:36:49.534Z,513.00
2023-05-22T08:37:49.584Z,521.00
2023-05-22T08:38:49.887Z,504.00
2023-05-22T08:39:49.677Z,513.00
2023-05-22T08:40:49.741Z,503.00
2023-05-22T08:41:49.776Z,504.00
2023-05-22T08:43:21.877Z,500.00
2023-05-22T08:43:49.885Z,500.00
2023-05-22T08:45:21.901Z,500.00
2023-05-22T08:45:49.777Z,500.00
2023-05-22T08:46:49.822Z,501.00
2023-05-22T08:47:50.025Z,511.00
2023-05-22T08:48:49.736Z,519.00
2023-05-22T08:49:49.739Z,532.00
2023-05-22T08:50:49.719Z,543.00
2023-05-22T08:51:49.691Z,551.00
2023-05-22T08:52:49.889Z,556.00
2023-05-22T08:53:49.689Z,567.00
2023-05-22T08:54:49.628Z,574.00
2023-05-22T08:55:49.616Z,554.00
2023-05-22T08:56:56.798Z,572.00
2023-05-22T08:57:49.892Z,572.00
2023-05-22T08:58:49.578Z,572.00
2023-05-22T08:59:49.577Z,574.00
2023-05-22T09:00:49.850Z,576.00
2023-05-22T09:01:49.561Z,577.00
2023-05-22T09:02:50.013Z,571.00
2023-05-22T09:03:49.941Z,576.00
2023-05-22T09:04:49.480Z,554.00
2023-05-22T09:05:49.456Z,557.00
2023-05-22T09:06:49.922Z,553.00
2023-05-22T09:07:49.900Z,546.00
2023-05-22T09:08:51.363Z,554.00
2023-05-22T09:09:49.403Z,546.00
2023-05-22T09:10:49.371Z,530.00
2023-05-22T09:11:49.407Z,527.00
2023-05-22T09:12:49.343Z,512.00
2023-05-22T09:13:49.337Z,500.00
2023-05-22T09:14:49.305Z,500.00
2023-05-22T09:15:49.295Z,501.00
2023-05-22T09:16:52.574Z,472.00
2023-05-22T09:17:49.296Z,473.00
2023-05-22T09:18:49.276Z,473.00
2023-05-22T09:19:49.235Z,485.00
2023-05-22T09:20:50.403Z,485.00
2023-05-22T09:21:52.663Z,472.00
2023-05-22T09:22:49.169Z,473.00
2023-05-22T09:23:52.353Z,479.00
2023-05-22T09:24:49.122Z,473.00
2023-05-22T09:25:52.655Z,477.00
2023-05-22T09:26:49.406Z,473.00
2023-05-22T09:27:49.069Z,476.00
2023-05-22T09:28:49.419Z,480.00
2023-05-22T09:29:49.019Z,488.00
2023-05-22T09:30:50.131Z,485.00
2023-05-22T09:31:49.113Z,503.00
2023-05-22T09:32:49.116Z,494.00
2023-05-22T09:33:49.406Z,481.00
2023-05-22T09:34:48.923Z,519.00
2023-05-22T09:35:48.918Z,495.00
2023-05-22T09:36:48.858Z,503.00
2023-05-22T09:37:48.843Z,531.00
2023-05-22T09:40:48.790Z,541.00
2023-05-22T09:41:48.783Z,553.00
2023-05-22T09:43:50.758Z,542.00
2023-05-22T09:44:48.721Z,543.00
2023-05-22T09:45:48.680Z,560.00
2023-05-22T09:46:48.960Z,590.00
2023-05-22T09:47:48.711Z,643.00
2023-05-22T09:48:48.743Z,799.00
2023-05-22T09:49:48.603Z,856.00
2023-05-22T09:50:48.584Z,896.00
2023-05-22T09:51:49.050Z,922.00
2023-05-22T09:52:48.567Z,969.00
2023-05-22T09:53:48.918Z,977.00
2023-05-22T09:54:48.498Z,995.00
2023-05-22T09:55:48.493Z,986.00
2023-05-22T09:56:48.481Z,985.00
2023-05-22T09:57:48.922Z,989.00
2023-05-22T09:58:48.436Z,969.00
2023-05-22T09:59:48.409Z,974.00
2023-05-22T10:00:55.791Z,977.00
2023-05-22T10:01:48.373Z,978.00
2023-05-22T10:02:48.430Z,982.00
2023-05-22T10:03:49.554Z,986.00
2023-05-22T10:04:48.398Z,989.00
2023-05-22T10:05:48.267Z,1013.00
2023-05-22T10:06:48.246Z,1015.00
2023-05-22T10:07:48.426Z,1030.00
2023-05-22T10:08:48.288Z,998.00
2023-05-22T10:09:48.771Z,969.00
2023-05-22T10:10:48.370Z,947.00
2023-05-22T10:11:48.456Z,985.00
2023-05-22T10:12:48.459Z,990.00
2023-05-22T10:13:48.497Z,984.00
2023-05-22T10:14:48.929Z,992.00
2023-05-22T10:15:48.643Z,1002.00
2023-05-22T10:16:48.625Z,1030.00
2023-05-22T10:17:48.977Z,986.00
2023-05-22T10:18:48.759Z,995.00
2023-05-22T10:19:48.847Z,981.00
2023-05-22T10:20:48.908Z,862.00
2023-05-22T10:21:48.791Z,856.00
2023-05-22T10:22:48.806Z,844.00
2023-05-22T10:23:48.845Z,861.00
2023-05-22T10:24:48.945Z,834.00
2023-05-22T10:25:49.908Z,862.00
2023-05-22T10:26:48.956Z,824.00
2023-05-22T10:27:49.439Z,829.00
2023-05-22T10:28:49.017Z,892.00
2023-05-22T10:29:49.063Z,965.00
2023-05-22T10:30:49.082Z,1031.00
2023-05-22T10:31:49.101Z,1019.00
2023-05-22T10:32:49.481Z,980.00
2023-05-22T10:33:49.188Z,943.00
2023-05-22T10:34:49.200Z,918.00
2023-05-22T10:35:49.235Z,909.00
2023-05-22T10:36:49.384Z,908.00
2023-05-22T10:37:49.304Z,937.00
2023-05-22T10:38:49.356Z,948.00
2023-05-22T10:39:49.437Z,908.00
2023-05-22T10:40:49.421Z,921.00
2023-05-22T10:41:49.440Z,944.00
2023-05-22T10:42:49.473Z,961.00
2023-05-22T10:43:49.516Z,955.00
2023-05-22T10:44:49.543Z,961.00
2023-05-22T10:45:49.970Z,939.00
2023-05-22T10:46:49.604Z,961.00
2023-05-22T10:47:49.707Z,978.00
2023-05-22T10:48:49.682Z,961.00
2023-05-22T10:49:50.004Z,946.00
2023-05-22T10:50:49.749Z,908.00
2023-05-22T10:51:49.777Z,911.00
2023-05-22T10:52:49.923Z,926.00
2023-05-22T10:53:49.832Z,928.00
2023-05-22T10:54:49.866Z,883.00
2023-05-22T10:55:49.893Z,868.00
2023-05-22T10:56:49.930Z,834.00
2023-05-22T10:57:49.943Z,840.00
2023-05-22T10:58:49.961Z,843.00
2023-05-22T10:59:49.993Z,865.00
2023-05-22T11:00:50.012Z,886.00
2023-05-22T11:01:50.066Z,877.00
2023-05-22T11:02:50.471Z,864.00
2023-05-22T11:03:50.464Z,867.00
2023-05-22T11:04:50.126Z,881.00
2023-05-22T11:05:50.116Z,882.00
2023-05-22T11:06:53.325Z,878.00
2023-05-22T11:07:50.458Z,878.00
2023-05-22T11:08:50.204Z,845.00
2023-05-22T11:09:50.056Z,847.00
2023-05-22T11:10:50.012Z,826.00
2023-05-22T11:11:51.955Z,855.00
2023-05-22T11:12:50.459Z,877.00
2023-05-22T11:13:49.923Z,872.00
2023-05-22T11:14:49.968Z,765.00
2023-05-22T11:15:49.860Z,797.00
2023-05-22T11:16:49.887Z,869.00
2023-05-22T11:17:49.859Z,848.00
2023-05-22T11:18:49.820Z,845.00
2023-05-22T11:19:50.034Z,795.00
2023-05-22T11:20:49.718Z,782.00
2023-05-22T11:21:49.690Z,765.00
2023-05-22T11:22:50.026Z,753.00
2023-05-22T11:23:49.617Z,832.00
2023-05-22T11:24:57.493Z,853.00
2023-05-22T11:25:49.563Z,855.00
2023-05-22T11:26:50.661Z,862.00
2023-05-22T11:27:49.533Z,854.00
2023-05-22T11:28:49.477Z,871.00
2023-05-22T11:29:49.460Z,821.00
2023-05-22T11:30:49.453Z,859.00
2023-05-22T11:31:49.389Z,906.00
2023-05-22T11:32:49.502Z,979.00
2023-05-22T11:33:49.468Z,956.00
2023-05-22T11:34:49.402Z,972.00
2023-05-22T11:35:49.421Z,984.00
2023-05-22T11:36:49.462Z,1023.00
2023-05-22T11:37:49.478Z,1035.00
2023-05-22T11:38:49.971Z,1062.00
2023-05-22T11:39:49.543Z,1097.00
2023-05-22T11:40:49.705Z,1180.00
2023-05-22T11:41:49.600Z,1236.00
2023-05-22T11:42:49.625Z,1252.00
2023-05-22T11:43:49.651Z,1184.00
2023-05-22T11:44:49.672Z,1165.00
2023-05-22T11:45:49.699Z,1244.00
2023-05-22T11:46:49.748Z,1274.00
2023-05-22T11:47:49.861Z,1245.00
2023-05-22T11:48:49.968Z,1207.00
2023-05-22T11:49:49.840Z,1205.00
2023-05-22T11:50:49.840Z,1245.00
2023-05-22T11:51:49.847Z,1173.00
2023-05-22T11:52:49.845Z,1189.00
2023-05-22T11:53:49.980Z,1112.00
2023-05-22T11:54:49.860Z,1079.00
2023-05-22T11:55:49.881Z,1075.00
2023-05-22T11:56:49.969Z,1157.00
2023-05-22T11:57:49.983Z,1125.00
2023-05-22T11:58:49.864Z,1103.00
2023-05-22T11:59:49.900Z,1071.00
2023-05-22T12:00:49.866Z,1126.00
2023-05-22T12:01:50.541Z,1057.00
2023-05-22T12:02:50.099Z,1073.00
2023-05-22T12:03:50.044Z,1078.00
2023-05-22T12:04:49.860Z,1054.00
2023-05-22T12:05:50.890Z,1054.00
2023-05-22T12:06:50.037Z,929.00
2023-05-22T12:07:49.970Z,1000.00
2023-05-22T12:08:49.969Z,1084.00
2023-05-22T12:09:49.861Z,1155.00
2023-05-22T12:10:49.972Z,1182.00
2023-05-22T12:11:49.872Z,1218.00
2023-05-22T12:12:50.094Z,1196.00
2023-05-22T12:13:49.864Z,1211.00
2023-05-22T12:14:49.882Z,1289.00
2023-05-22T12:15:49.849Z,1296.00
2023-05-22T12:16:49.880Z,1304.00
2023-05-22T12:17:49.905Z,1314.00
2023-05-22T12:18:50.040Z,1258.00
2023-05-22T12:19:49.823Z,1239.00
2023-05-22T12:20:49.813Z,1290.00
2023-05-22T12:21:49.794Z,1235.00
2023-05-22T12:22:49.793Z,1237.00
2023-05-22T12:23:49.994Z,1217.00
2023-05-22T12:24:49.755Z,1182.00
2023-05-22T12:25:49.757Z,1161.00
2023-05-22T12:26:49.745Z,1114.00
2023-05-22T12:27:49.973Z,1051.00
2023-05-22T12:28:50.103Z,1102.00
2023-05-22T12:29:49.709Z,1116.00
2023-05-22T12:30:49.981Z,1114.00
2023-05-22T12:31:49.758Z,1113.00
2023-05-22T12:32:50.064Z,1032.00
2023-05-22T12:33:49.655Z,992.00